createdAt,value
2022-08-03T00:00:53.550Z,79.88
2022-08-03T00:01:53.549Z,79.79
2022-08-03T00:02:53.672Z,79.88
2022-08-03T00:03:53.522Z,80.29
2022-08-03T00:04:53.526Z,80.29
2022-08-03T00:06:04.435Z,80.19
2022-08-03T00:06:54.501Z,80.29
2022-08-03T00:07:53.492Z,80.19
2022-08-03T00:08:53.488Z,80.19
2022-08-03T00:09:53.501Z,80.08
2022-08-03T00:10:53.488Z,80.43
2022-08-03T00:11:53.476Z,80.12
2022-08-03T00:12:53.454Z,80.02
2022-08-03T00:13:53.455Z,80.43
2022-08-03T00:14:53.442Z,80.43
2022-08-03T00:15:53.439Z,80.02
2022-08-03T00:16:53.436Z,80.12
2022-08-03T00:17:54.087Z,80.43
2022-08-03T00:18:54.409Z,80.29
2022-08-03T00:19:53.435Z,80.32
2022-08-03T00:20:53.402Z,80.43
2022-08-03T00:21:53.399Z,80.43
2022-08-03T00:22:53.386Z,80.32
2022-08-03T00:23:53.377Z,80.63
2022-08-03T00:24:53.376Z,80.73
2022-08-03T00:25:53.359Z,80.73
2022-08-03T00:26:53.359Z,80.43
2022-08-03T00:27:53.338Z,80.22
2022-08-03T00:28:53.326Z,80.73
2022-08-03T00:30:00.176Z,80.53
2022-08-03T00:30:54.326Z,80.83
2022-08-03T00:32:53.760Z,80.43
2022-08-03T00:33:58.320Z,81.07
2022-08-03T00:34:57.990Z,80.97
2022-08-03T00:35:54.826Z,81.07
2022-08-03T00:36:54.812Z,80.97
2022-08-03T00:37:54.813Z,80.77
2022-08-03T00:38:54.804Z,80.77
2022-08-03T00:39:54.795Z,80.77
2022-08-03T00:40:55.783Z,80.66
2022-08-03T00:41:54.772Z,80.46
2022-08-03T00:42:54.765Z,80.46
2022-08-03T00:43:54.771Z,80.16
2022-08-03T00:44:54.747Z,80.26
2022-08-03T00:45:54.741Z,80.22
2022-08-03T00:46:54.734Z,79.82
2022-08-03T00:47:54.728Z,79.66
2022-08-03T00:48:54.828Z,79.32
2022-08-03T00:49:54.710Z,79.82
2022-08-03T00:50:54.704Z,79.82
2022-08-03T00:51:54.695Z,79.01
2022-08-03T00:52:54.690Z,78.71
2022-08-03T00:53:54.696Z,78.91
2022-08-03T00:54:54.677Z,79.52
2022-08-03T00:55:54.666Z,79.62
2022-08-03T00:57:00.272Z,79.82
2022-08-03T00:57:55.656Z,79.62
2022-08-03T00:58:54.649Z,79.72
2022-08-03T00:59:54.626Z,79.92
2022-08-03T01:00:54.690Z,79.62
2022-08-03T01:01:54.615Z,79.92
2022-08-03T01:02:54.618Z,79.72
2022-08-03T01:03:54.597Z,80.12
2022-08-03T01:04:54.590Z,80.26
2022-08-03T01:05:54.588Z,80.46
2022-08-03T01:06:54.577Z,80.46
2022-08-03T01:07:55.198Z,80.60
2022-08-03T01:08:54.561Z,80.77
2022-08-03T01:09:54.553Z,81.21
2022-08-03T01:10:54.547Z,81.41
2022-08-03T01:12:01.271Z,81.51
2022-08-03T01:12:56.520Z,81.21
2022-08-03T01:14:04.123Z,81.41
2022-08-03T01:14:55.536Z,81.71
2022-08-03T01:15:54.508Z,81.62
2022-08-03T01:16:54.501Z,81.11
2022-08-03T01:17:54.482Z,81.21
2022-08-03T01:18:54.477Z,81.01
2022-08-03T01:19:54.466Z,81.01
2022-08-03T01:20:54.456Z,80.46
2022-08-03T01:21:55.125Z,80.46
2022-08-03T01:22:54.439Z,80.80
2022-08-03T01:23:54.428Z,80.97
2022-08-03T01:24:54.427Z,80.46
2022-08-03T01:25:54.741Z,80.50
2022-08-03T01:26:54.456Z,80.30
2022-08-03T01:27:54.400Z,80.20
2022-08-03T01:28:54.411Z,79.96
2022-08-03T01:29:54.392Z,80.30
2022-08-03T01:30:54.374Z,80.26
2022-08-03T01:33:00.186Z,80.57
2022-08-03T01:33:00.952Z,80.57
2022-08-03T01:33:55.350Z,80.57
2022-08-03T01:34:54.344Z,80.97
2022-08-03T01:35:54.349Z,81.01
2022-08-03T01:36:54.335Z,81.21
2022-08-03T01:37:54.339Z,81.31
2022-08-03T01:38:54.297Z,81.31
2022-08-03T01:39:55.299Z,81.51
2022-08-03T01:40:54.306Z,81.62
2022-08-03T01:41:54.287Z,81.48
2022-08-03T01:42:54.300Z,81.68
2022-08-03T01:44:28.397Z,81.71
2022-08-03T01:44:55.265Z,81.82
2022-08-03T01:45:54.264Z,81.82
2022-08-03T01:46:54.245Z,81.96
2022-08-03T01:47:54.234Z,82.02
2022-08-03T01:48:54.271Z,82.16
2022-08-03T01:49:54.231Z,82.26
2022-08-03T01:50:54.219Z,82.22
2022-08-03T01:51:56.685Z,82.02
2022-08-03T01:52:55.194Z,81.62
2022-08-03T01:53:54.189Z,81.41
2022-08-03T01:54:54.184Z,81.11
2022-08-03T01:55:54.178Z,81.01
2022-08-03T01:56:54.173Z,80.71
2022-08-03T01:58:05.468Z,80.74
2022-08-03T01:58:55.153Z,80.54
2022-08-03T01:59:54.142Z,80.54
2022-08-03T02:00:54.185Z,80.50
2022-08-03T02:02:27.811Z,80.91
2022-08-03T02:02:55.118Z,80.80
2022-08-03T02:04:00.284Z,81.01
2022-08-03T02:04:55.101Z,81.01
2022-08-03T02:06:11.510Z,81.65
2022-08-03T02:07:01.944Z,82.02
2022-08-03T02:07:55.078Z,82.22
2022-08-03T02:08:54.085Z,82.67
2022-08-03T02:09:54.057Z,82.46
2022-08-03T02:10:54.057Z,82.46
2022-08-03T02:11:54.049Z,83.11
2022-08-03T02:12:54.036Z,83.01
2022-08-03T02:13:54.039Z,83.72
2022-08-03T02:14:54.023Z,84.06
2022-08-03T02:15:54.012Z,84.12
2022-08-03T02:16:54.007Z,83.96
2022-08-03T02:17:53.999Z,83.82
2022-08-03T02:18:53.993Z,84.02
2022-08-03T02:19:53.988Z,84.16
2022-08-03T02:20:53.972Z,84.56
2022-08-03T02:21:55.910Z,84.16
2022-08-03T02:22:54.961Z,84.67
2022-08-03T02:23:53.960Z,84.77
2022-08-03T02:24:53.950Z,84.27
2022-08-03T02:25:53.933Z,84.67
2022-08-03T02:26:53.929Z,84.87
2022-08-03T02:27:53.916Z,83.96
2022-08-03T02:28:53.913Z,84.27
2022-08-03T02:29:53.910Z,83.96
2022-08-03T02:30:54.092Z,84.30
2022-08-03T02:31:53.891Z,84.56
2022-08-03T02:32:53.885Z,84.50
2022-08-03T02:33:53.865Z,84.67
2022-08-03T02:34:53.893Z,84.56
2022-08-03T02:35:53.853Z,84.56
2022-08-03T02:36:53.846Z,84.77
2022-08-03T02:37:53.837Z,84.67
2022-08-03T02:38:53.836Z,84.77
2022-08-03T02:39:53.831Z,84.36
2022-08-03T02:40:53.821Z,84.87
2022-08-03T02:41:53.809Z,84.06
2022-08-03T02:42:53.804Z,84.47
2022-08-03T02:44:06.145Z,83.86
2022-08-03T02:44:54.791Z,84.77
2022-08-03T02:45:53.789Z,83.72
2022-08-03T02:46:53.766Z,84.36
2022-08-03T02:47:54.958Z,84.27
2022-08-03T02:48:53.783Z,84.56
2022-08-03T02:49:53.829Z,84.56
2022-08-03T02:50:53.757Z,84.16
2022-08-03T02:51:53.727Z,84.06
2022-08-03T02:52:53.720Z,84.16
2022-08-03T02:53:54.228Z,83.45
2022-08-03T02:54:53.703Z,84.06
2022-08-03T02:55:53.698Z,83.45
2022-08-03T02:56:53.694Z,83.35
2022-08-03T02:57:53.684Z,83.55
2022-08-03T02:58:53.677Z,83.45
2022-08-03T02:59:53.670Z,83.55
2022-08-03T03:00:53.710Z,83.86
2022-08-03T03:01:53.688Z,83.76
2022-08-03T03:02:53.653Z,83.96
2022-08-03T03:03:53.641Z,83.65
2022-08-03T03:05:51.792Z,84.16
2022-08-03T03:05:57.613Z,83.86
2022-08-03T03:06:54.616Z,84.06
2022-08-03T03:07:53.605Z,83.65
2022-08-03T03:08:57.916Z,83.76
2022-08-03T03:09:55.590Z,83.96
2022-08-03T03:10:55.554Z,84.50
2022-08-03T03:11:53.571Z,84.47
2022-08-03T03:12:53.564Z,84.41
2022-08-03T03:13:54.159Z,83.80
2022-08-03T03:14:54.159Z,84.91
2022-08-03T03:15:53.550Z,85.05
2022-08-03T03:16:57.966Z,85.15
2022-08-03T03:17:53.531Z,85.36
2022-08-03T03:18:53.514Z,85.15
2022-08-03T03:19:53.507Z,85.56
2022-08-03T03:20:53.512Z,85.56
2022-08-03T03:21:53.494Z,85.56
2022-08-03T03:22:53.490Z,86.07
2022-08-03T03:23:53.480Z,85.90
2022-08-03T03:24:53.478Z,86.31
2022-08-03T03:25:53.468Z,86.47
2022-08-03T03:26:53.467Z,87.12
2022-08-03T03:27:53.461Z,87.08
2022-08-03T03:28:53.442Z,86.98
2022-08-03T03:29:53.435Z,87.12
2022-08-03T03:30:53.660Z,86.47
2022-08-03T03:31:53.425Z,86.31
2022-08-03T03:32:53.410Z,86.27
2022-08-03T03:33:53.406Z,86.27
2022-08-03T03:34:53.395Z,87.08
2022-08-03T03:35:53.389Z,87.08
2022-08-03T03:36:53.387Z,86.77
2022-08-03T03:37:53.386Z,86.77
2022-08-03T03:38:53.666Z,86.77
2022-08-03T03:39:53.352Z,87.28
2022-08-03T03:40:53.351Z,86.07
2022-08-03T03:41:53.683Z,85.96
2022-08-03T03:42:53.337Z,85.93
2022-08-03T03:43:54.241Z,85.72
2022-08-03T03:44:53.320Z,85.82
2022-08-03T03:45:53.298Z,86.02
2022-08-03T03:46:53.305Z,86.02
2022-08-03T03:47:53.283Z,85.76
2022-08-03T03:48:53.334Z,85.66
2022-08-03T03:49:53.269Z,85.62
2022-08-03T03:50:53.262Z,85.36
2022-08-03T03:51:53.260Z,84.95
2022-08-03T03:52:53.247Z,84.91
2022-08-03T03:53:53.242Z,85.15
2022-08-03T03:54:56.327Z,84.91
2022-08-03T03:56:01.614Z,84.91
2022-08-03T03:56:54.219Z,85.05
2022-08-03T03:57:53.209Z,84.70
2022-08-03T03:58:53.204Z,84.75
2022-08-03T03:59:53.185Z,84.64
2022-08-03T04:00:53.227Z,84.70
2022-08-03T04:01:58.905Z,84.75
2022-08-03T04:02:54.165Z,84.75
2022-08-03T04:03:53.161Z,85.05
2022-08-03T04:04:53.148Z,84.75
2022-08-03T04:05:53.146Z,84.95
2022-08-03T04:06:53.133Z,84.95
2022-08-03T04:07:53.130Z,85.25
2022-08-03T04:08:53.125Z,85.50
2022-08-03T04:09:53.112Z,85.60
2022-08-03T04:10:53.108Z,85.50
2022-08-03T04:11:53.098Z,85.70
2022-08-03T04:12:53.094Z,85.60
2022-08-03T04:13:53.078Z,85.56
2022-08-03T04:14:53.083Z,85.86
2022-08-03T04:15:53.070Z,85.56
2022-08-03T04:16:53.055Z,85.66
2022-08-03T04:17:53.051Z,85.80
2022-08-03T04:18:53.054Z,85.15
2022-08-03T04:19:53.041Z,85.46
2022-08-03T04:20:53.039Z,84.85
2022-08-03T04:21:53.013Z,85.21
2022-08-03T04:22:53.013Z,84.91
2022-08-03T04:23:53.011Z,84.81
2022-08-03T04:24:52.994Z,84.00
2022-08-03T04:25:53.002Z,84.20
2022-08-03T04:26:53.087Z,84.27
2022-08-03T04:28:07.714Z,84.27
2022-08-03T04:28:53.965Z,83.86
2022-08-03T04:29:52.957Z,83.96
2022-08-03T04:30:52.946Z,83.96
2022-08-03T04:31:52.944Z,83.65
2022-08-03T04:32:53.757Z,83.51
2022-08-03T04:33:52.930Z,82.70
2022-08-03T04:34:52.922Z,81.82
2022-08-03T04:36:01.189Z,80.97
2022-08-03T04:36:53.907Z,79.82
2022-08-03T04:37:52.894Z,78.53
2022-08-03T04:38:52.884Z,77.19
2022-08-03T04:39:53.755Z,75.63
2022-08-03T04:40:52.875Z,75.50
2022-08-03T04:42:07.579Z,74.76
2022-08-03T04:42:53.851Z,74.32
2022-08-03T04:43:52.845Z,72.67
2022-08-03T04:44:55.586Z,71.83
2022-08-03T04:45:53.838Z,71.50
2022-08-03T04:46:52.921Z,70.26
2022-08-03T04:47:52.817Z,69.62
2022-08-03T04:48:52.889Z,69.06
2022-08-03T04:49:53.800Z,67.72
2022-08-03T04:52:00.413Z,66.18
2022-08-03T04:52:59.295Z,64.92
2022-08-03T04:53:59.283Z,64.59
2022-08-03T04:55:00.395Z,63.56
2022-08-03T04:56:01.537Z,62.12
2022-08-03T04:57:00.360Z,61.99
2022-08-03T04:58:00.341Z,61.36
2022-08-03T04:59:00.332Z,60.33
2022-08-03T05:00:03.061Z,59.83
2022-08-03T05:01:01.317Z,59.51
2022-08-03T05:02:00.410Z,59.11
2022-08-03T05:03:00.303Z,59.51
2022-08-03T05:04:00.298Z,58.88
2022-08-03T05:05:00.332Z,58.65
2022-08-03T05:06:09.858Z,58.33
2022-08-03T05:07:11.593Z,57.13
2022-08-03T05:08:01.266Z,57.13
2022-08-03T05:09:00.290Z,57.40
2022-08-03T05:10:02.948Z,56.68
2022-08-03T05:11:00.246Z,56.35
2022-08-03T05:12:00.236Z,55.55
2022-08-03T05:13:00.242Z,55.23
2022-08-03T05:14:00.236Z,55.58
2022-08-03T05:15:00.236Z,56.51
2022-08-03T05:16:00.206Z,58.15
2022-08-03T05:17:00.203Z,58.55
2022-08-03T05:18:00.208Z,58.51
2022-08-03T05:19:00.225Z,58.91
2022-08-03T05:20:00.188Z,58.98
2022-08-03T05:21:00.183Z,58.36
2022-08-03T05:22:00.165Z,57.53
2022-08-03T05:23:00.178Z,57.15
2022-08-03T05:24:00.149Z,57.13
2022-08-03T05:25:00.154Z,57.33
2022-08-03T05:26:00.967Z,57.23
2022-08-03T05:27:00.122Z,56.40
2022-08-03T05:28:00.126Z,56.48
2022-08-03T05:29:00.124Z,55.16
2022-08-03T05:30:31.022Z,54.83
2022-08-03T05:31:01.092Z,54.63
2022-08-03T05:32:01.858Z,53.41
2022-08-03T05:33:00.088Z,53.09
2022-08-03T05:34:00.066Z,52.17
2022-08-03T05:35:00.962Z,52.74
2022-08-03T05:36:04.178Z,52.14
2022-08-03T05:37:00.073Z,52.34
2022-08-03T05:38:00.043Z,52.04
2022-08-03T05:39:02.730Z,51.95
2022-08-03T05:40:01.040Z,51.15
2022-08-03T05:41:21.188Z,50.83
2022-08-03T05:42:01.011Z,50.60
2022-08-03T05:43:00.012Z,49.88
2022-08-03T05:44:00.000Z,50.09
2022-08-03T05:44:59.993Z,49.69
2022-08-03T05:46:12.312Z,50.38
2022-08-03T05:47:00.978Z,50.26
2022-08-03T05:47:59.962Z,50.28
2022-08-03T05:49:00.016Z,50.31
2022-08-03T05:49:59.975Z,50.26
2022-08-03T05:50:59.946Z,49.64
2022-08-03T05:52:21.153Z,48.55
2022-08-03T05:53:00.929Z,50.38
2022-08-03T05:53:59.924Z,49.46
2022-08-03T05:54:59.916Z,50.06
2022-08-03T05:56:13.048Z,50.81
2022-08-03T05:57:01.896Z,51.00
2022-08-03T05:57:59.890Z,51.00
2022-08-03T05:59:16.334Z,50.58
2022-08-03T06:00:01.881Z,49.37
2022-08-03T06:00:59.879Z,50.68
2022-08-03T06:01:59.909Z,50.18
2022-08-03T06:02:59.851Z,50.04
2022-08-03T06:03:59.849Z,49.64
2022-08-03T06:04:59.840Z,48.33
2022-08-03T06:06:00.517Z,48.72
2022-08-03T06:06:59.826Z,48.11
2022-08-03T06:07:59.817Z,48.28
2022-08-03T06:08:59.810Z,47.81
2022-08-03T06:10:34.023Z,48.72
2022-08-03T06:11:00.791Z,49.44
2022-08-03T06:11:59.781Z,49.02
2022-08-03T06:12:59.771Z,49.12
2022-08-03T06:13:59.761Z,48.21
2022-08-03T06:15:00.533Z,48.18
2022-08-03T06:15:59.753Z,47.66
2022-08-03T06:16:59.741Z,46.78
2022-08-03T06:18:02.015Z,47.99
2022-08-03T06:19:00.717Z,48.30
2022-08-03T06:19:59.721Z,48.13
2022-08-03T06:21:14.608Z,48.43
2022-08-03T06:22:00.729Z,48.11
2022-08-03T06:23:00.295Z,48.38
2022-08-03T06:23:59.717Z,47.59
2022-08-03T06:25:04.115Z,47.86
2022-08-03T06:26:00.680Z,47.27
2022-08-03T06:26:59.660Z,47.05
2022-08-03T06:27:59.652Z,47.05
2022-08-03T06:28:59.638Z,46.66
2022-08-03T06:30:00.660Z,47.07
2022-08-03T06:31:00.558Z,47.77
2022-08-03T06:31:59.626Z,47.34
2022-08-03T06:32:59.629Z,47.25
2022-08-03T06:34:33.905Z,46.78
2022-08-03T06:35:00.601Z,47.77
2022-08-03T06:35:59.599Z,46.67
2022-08-03T06:37:02.171Z,47.05
2022-08-03T06:38:00.593Z,46.33
2022-08-03T06:38:59.580Z,45.79
2022-08-03T06:39:59.583Z,45.89
2022-08-03T06:40:59.577Z,44.91
2022-08-03T06:41:59.551Z,45.23
2022-08-03T06:42:59.549Z,45.20
2022-08-03T06:44:03.274Z,44.98
2022-08-03T06:44:59.533Z,44.79
2022-08-03T06:45:59.530Z,43.78
2022-08-03T06:46:59.528Z,44.79
2022-08-03T06:47:59.509Z,45.92
2022-08-03T06:48:59.572Z,45.30
2022-08-03T06:50:12.664Z,45.20
2022-08-03T06:51:00.500Z,45.30
2022-08-03T06:52:06.173Z,45.08
2022-08-03T06:53:00.475Z,44.42
2022-08-03T06:53:59.477Z,44.89
2022-08-03T06:54:59.470Z,44.69
2022-08-03T06:55:59.451Z,44.87
2022-08-03T06:56:59.451Z,44.07
2022-08-03T06:58:00.000Z,43.98
2022-08-03T06:58:59.428Z,44.67
2022-08-03T07:00:09.607Z,45.18
2022-08-03T07:01:00.486Z,45.01
2022-08-03T07:01:59.411Z,45.01
2022-08-03T07:02:59.394Z,45.18
2022-08-03T07:03:59.389Z,44.57
2022-08-03T07:04:59.381Z,44.07
2022-08-03T07:05:59.379Z,44.25
2022-08-03T07:06:59.369Z,43.76
2022-08-03T07:07:59.354Z,43.37
2022-08-03T07:08:59.744Z,43.93
2022-08-03T07:10:00.357Z,43.44
2022-08-03T07:10:59.340Z,43.23
2022-08-03T07:11:59.337Z,42.63
2022-08-03T07:12:59.324Z,42.71
2022-08-03T07:13:59.325Z,41.80
2022-08-03T07:15:01.762Z,42.40
2022-08-03T07:16:00.308Z,41.98
2022-08-03T07:16:59.302Z,41.17
2022-08-03T07:17:59.295Z,41.08
2022-08-03T07:18:59.277Z,40.48
2022-08-03T07:19:59.291Z,41.08
2022-08-03T07:20:59.291Z,41.69
2022-08-03T07:22:02.111Z,40.48
2022-08-03T07:23:00.249Z,40.86
2022-08-03T07:23:59.262Z,40.86
2022-08-03T07:24:59.229Z,41.06
2022-08-03T07:25:59.227Z,40.17
2022-08-03T07:26:59.248Z,40.66
2022-08-03T07:27:59.235Z,39.88
2022-08-03T07:28:59.270Z,40.37
2022-08-03T07:29:59.194Z,40.17
2022-08-03T07:30:59.207Z,40.76
2022-08-03T07:31:59.194Z,40.06
2022-08-03T07:32:59.175Z,40.08
2022-08-03T07:34:00.001Z,40.08
2022-08-03T07:35:00.840Z,39.68
2022-08-03T07:36:00.155Z,39.88
2022-08-03T07:36:59.157Z,39.86
2022-08-03T07:37:59.147Z,39.37
2022-08-03T07:38:59.130Z,39.76
2022-08-03T07:39:59.122Z,39.19
2022-08-03T07:40:59.117Z,40.16
2022-08-03T07:41:59.120Z,39.86
2022-08-03T07:42:59.114Z,40.23
2022-08-03T07:43:59.091Z,39.86
2022-08-03T07:44:59.135Z,40.06
2022-08-03T07:45:59.080Z,39.66
2022-08-03T07:46:59.088Z,38.85
2022-08-03T07:47:59.063Z,39.15
2022-08-03T07:48:59.075Z,40.06
2022-08-03T07:49:59.049Z,38.85
2022-08-03T07:50:59.051Z,38.35
2022-08-03T07:51:59.045Z,37.86
2022-08-03T07:52:59.030Z,38.15
2022-08-03T07:53:59.021Z,38.35
2022-08-03T07:54:59.015Z,38.25
2022-08-03T07:55:59.016Z,38.35
2022-08-03T07:56:59.016Z,38.35
2022-08-03T07:58:01.511Z,38.43
2022-08-03T07:58:59.002Z,38.33
2022-08-03T08:00:02.392Z,38.23
2022-08-03T08:00:59.010Z,38.31
2022-08-03T08:01:58.977Z,38.43
2022-08-03T08:02:58.965Z,38.00
2022-08-03T08:03:58.966Z,38.21
2022-08-03T08:05:03.482Z,36.74
2022-08-03T08:06:00.931Z,37.92
2022-08-03T08:06:58.928Z,37.45
2022-08-03T08:07:58.932Z,38.62
2022-08-03T08:08:58.915Z,37.52
2022-08-03T08:09:58.918Z,37.82
2022-08-03T08:10:58.923Z,37.73
2022-08-03T08:11:58.897Z,37.54
2022-08-03T08:12:58.889Z,38.21
2022-08-03T08:13:58.877Z,37.61
2022-08-03T08:14:58.869Z,38.00
2022-08-03T08:15:58.904Z,37.41
2022-08-03T08:16:58.850Z,38.20
2022-08-03T08:17:58.881Z,37.69
2022-08-03T08:18:58.837Z,37.27
2022-08-03T08:20:31.749Z,36.88
2022-08-03T08:20:58.829Z,37.57
2022-08-03T08:22:02.842Z,37.10
2022-08-03T08:23:01.367Z,37.10
2022-08-03T08:23:58.806Z,37.27
2022-08-03T08:24:58.809Z,37.18
2022-08-03T08:25:58.792Z,37.67
2022-08-03T08:26:58.789Z,36.88
2022-08-03T08:28:29.875Z,37.57
2022-08-03T08:28:59.773Z,37.57
2022-08-03T08:30:07.299Z,36.79
2022-08-03T08:31:00.756Z,37.18
2022-08-03T08:31:58.765Z,37.37
2022-08-03T08:32:58.737Z,36.88
2022-08-03T08:34:04.045Z,37.69
2022-08-03T08:35:01.647Z,36.80
2022-08-03T08:35:58.720Z,37.18
2022-08-03T08:36:58.710Z,37.88
2022-08-03T08:37:58.719Z,36.69
2022-08-03T08:38:59.710Z,37.18
2022-08-03T08:39:58.679Z,37.08
2022-08-03T08:40:59.687Z,36.98
2022-08-03T08:41:58.682Z,36.96
2022-08-03T08:42:59.265Z,37.06
2022-08-03T08:44:00.196Z,37.65
2022-08-03T08:44:59.653Z,36.77
2022-08-03T08:45:58.642Z,36.94
2022-08-03T08:46:58.634Z,37.45
2022-08-03T08:48:01.891Z,36.98
2022-08-03T08:49:00.672Z,37.49
2022-08-03T08:50:09.882Z,38.59
2022-08-03T08:51:00.630Z,38.59
2022-08-03T08:52:01.261Z,38.70
2022-08-03T08:52:58.598Z,38.41
2022-08-03T08:53:58.572Z,37.92
2022-08-03T08:55:00.137Z,38.59
2022-08-03T08:56:00.739Z,38.28
2022-08-03T08:57:00.075Z,38.08
2022-08-03T08:57:58.555Z,36.88
2022-08-03T08:58:58.553Z,37.27
2022-08-03T08:59:58.534Z,37.10
2022-08-03T09:00:58.632Z,37.08
2022-08-03T09:01:58.528Z,37.37
2022-08-03T09:02:58.512Z,37.10
2022-08-03T09:03:58.511Z,36.79
2022-08-03T09:04:59.838Z,36.59
2022-08-03T09:05:58.496Z,36.69
2022-08-03T09:07:18.864Z,36.88
2022-08-03T09:08:00.478Z,36.98
2022-08-03T09:08:58.485Z,36.79
2022-08-03T09:10:11.971Z,36.98
2022-08-03T09:10:59.458Z,37.29
2022-08-03T09:12:14.614Z,37.37
2022-08-03T09:13:00.477Z,37.18
2022-08-03T09:13:58.446Z,35.81
2022-08-03T09:15:15.958Z,36.22
2022-08-03T09:16:01.121Z,36.10
2022-08-03T09:16:58.408Z,36.20
2022-08-03T09:17:58.409Z,35.50
2022-08-03T09:18:58.396Z,35.99
2022-08-03T09:20:03.465Z,35.68
2022-08-03T09:21:03.794Z,35.60
2022-08-03T09:21:59.369Z,35.42
2022-08-03T09:22:58.361Z,35.61
2022-08-03T09:24:03.339Z,35.71
2022-08-03T09:25:22.838Z,35.71
2022-08-03T09:26:01.255Z,36.69
2022-08-03T09:26:58.336Z,36.79
2022-08-03T09:27:58.324Z,37.57
2022-08-03T09:29:04.121Z,35.91
2022-08-03T09:30:00.375Z,35.81
2022-08-03T09:30:58.306Z,36.12
2022-08-03T09:31:59.464Z,35.53
2022-08-03T09:32:58.681Z,36.43
2022-08-03T09:33:58.285Z,36.43
2022-08-03T09:34:58.285Z,36.72
2022-08-03T09:35:59.318Z,35.66
2022-08-03T09:36:58.478Z,36.35
2022-08-03T09:38:12.775Z,35.47
2022-08-03T09:38:59.256Z,35.88
2022-08-03T09:39:58.237Z,36.57
2022-08-03T09:41:00.405Z,36.47
2022-08-03T09:41:59.236Z,35.49
2022-08-03T09:42:58.234Z,36.08
2022-08-03T09:43:58.218Z,35.78
2022-08-03T09:44:58.227Z,35.49
2022-08-03T09:45:58.196Z,36.08
2022-08-03T09:46:58.183Z,36.18
2022-08-03T09:47:59.097Z,35.19
2022-08-03T09:48:58.205Z,34.81
2022-08-03T09:49:58.174Z,35.70
2022-08-03T09:51:14.041Z,36.29
2022-08-03T09:52:37.909Z,36.39
2022-08-03T09:52:59.143Z,35.99
2022-08-03T09:53:59.663Z,36.39
2022-08-03T09:54:58.133Z,36.29
2022-08-03T09:56:34.812Z,36.49
2022-08-03T09:56:59.235Z,35.80
2022-08-03T09:57:58.119Z,35.78
2022-08-03T09:58:58.110Z,35.50
2022-08-03T10:00:04.498Z,36.09
2022-08-03T10:01:00.239Z,35.88
2022-08-03T10:01:58.078Z,35.78
2022-08-03T10:02:58.064Z,35.88
2022-08-03T10:04:03.081Z,36.57
2022-08-03T10:04:59.057Z,35.68
2022-08-03T10:06:00.051Z,36.08
2022-08-03T10:06:59.037Z,36.47
2022-08-03T10:07:58.034Z,36.76
2022-08-03T10:08:58.028Z,36.58
2022-08-03T10:09:58.029Z,36.09
2022-08-03T10:10:59.016Z,36.49
2022-08-03T10:11:58.015Z,36.78
2022-08-03T10:12:57.995Z,36.68
2022-08-03T10:14:01.481Z,36.09
2022-08-03T10:14:57.983Z,37.27
2022-08-03T10:16:23.291Z,35.80
2022-08-03T10:16:59.009Z,36.88
2022-08-03T10:17:57.992Z,35.49
2022-08-03T10:18:57.955Z,36.29
2022-08-03T10:19:57.975Z,36.49
2022-08-03T10:20:58.693Z,35.89
2022-08-03T10:21:57.936Z,35.78
2022-08-03T10:22:57.928Z,35.49
2022-08-03T10:23:57.931Z,35.68
2022-08-03T10:24:57.906Z,36.08
2022-08-03T10:25:57.898Z,35.21
2022-08-03T10:26:57.900Z,35.99
2022-08-03T10:27:57.885Z,36.09
2022-08-03T10:28:57.882Z,36.58
2022-08-03T10:29:57.866Z,35.99
2022-08-03T10:30:57.864Z,35.52
2022-08-03T10:31:58.681Z,36.30
2022-08-03T10:32:57.854Z,35.50
2022-08-03T10:33:57.877Z,37.07
2022-08-03T10:35:00.069Z,36.29
2022-08-03T10:35:58.709Z,35.60
2022-08-03T10:36:57.818Z,35.60
2022-08-03T10:37:58.836Z,35.89
2022-08-03T10:38:57.807Z,35.99
2022-08-03T10:39:59.699Z,36.37
2022-08-03T10:40:59.246Z,35.00
2022-08-03T10:41:59.800Z,35.88
2022-08-03T10:42:57.775Z,35.99
2022-08-03T10:43:57.774Z,35.29
2022-08-03T10:44:57.759Z,36.18
2022-08-03T10:45:57.759Z,35.10
2022-08-03T10:48:05.564Z,35.29
2022-08-03T10:49:05.551Z,35.00
2022-08-03T10:50:07.345Z,36.08
2022-08-03T10:51:07.352Z,34.61
2022-08-03T10:52:31.458Z,35.29
2022-08-03T10:53:08.347Z,35.10
2022-08-03T10:54:10.397Z,34.92
2022-08-03T10:55:10.698Z,35.00
2022-08-03T10:57:14.670Z,34.90
2022-08-03T10:58:13.363Z,36.08
2022-08-03T10:59:14.729Z,34.90
2022-08-03T11:00:14.349Z,35.00
2022-08-03T11:01:14.548Z,36.08
2022-08-03T11:02:14.456Z,35.11
2022-08-03T11:03:14.488Z,34.80
2022-08-03T11:04:16.987Z,34.80
2022-08-03T11:05:15.412Z,35.10
2022-08-03T11:06:14.396Z,34.51
2022-08-03T11:07:15.466Z,34.41
2022-08-03T11:08:14.383Z,35.29
2022-08-03T11:09:15.231Z,35.10
2022-08-03T11:10:14.362Z,34.88
2022-08-03T11:11:14.366Z,34.98
2022-08-03T11:12:14.354Z,35.66
2022-08-03T11:13:14.341Z,36.27
2022-08-03T11:14:14.342Z,35.88
2022-08-03T11:15:14.332Z,35.10
2022-08-03T11:16:18.383Z,35.47
2022-08-03T11:17:16.744Z,34.69
2022-08-03T11:18:14.304Z,34.10
2022-08-03T11:19:14.299Z,34.69
2022-08-03T11:20:14.296Z,34.49
2022-08-03T11:21:14.284Z,34.49
2022-08-03T11:22:14.270Z,34.39
2022-08-03T11:23:14.282Z,34.47
2022-08-03T11:24:14.253Z,34.69
2022-08-03T11:25:53.686Z,35.08
2022-08-03T11:26:15.271Z,34.69
2022-08-03T11:27:14.235Z,34.41
2022-08-03T11:28:14.230Z,35.39
2022-08-03T11:29:14.226Z,36.08
2022-08-03T11:30:14.211Z,35.00
2022-08-03T11:31:32.733Z,36.16
2022-08-03T11:32:19.512Z,35.78
2022-08-03T11:33:15.186Z,35.00
2022-08-03T11:34:14.187Z,34.78
2022-08-03T11:35:14.174Z,34.88
2022-08-03T11:36:14.161Z,34.78
2022-08-03T11:37:15.155Z,34.08
2022-08-03T11:38:14.147Z,34.96
2022-08-03T11:39:16.619Z,34.47
2022-08-03T11:40:14.139Z,33.98
2022-08-03T11:41:14.125Z,33.89
2022-08-03T11:42:14.147Z,34.84
2022-08-03T11:43:15.767Z,33.38
2022-08-03T11:44:14.110Z,33.28
2022-08-03T11:45:14.092Z,33.38
2022-08-03T11:46:14.088Z,34.06
2022-08-03T11:47:15.078Z,34.65
2022-08-03T11:48:14.824Z,33.48
2022-08-03T11:49:14.124Z,33.56
2022-08-03T11:50:14.058Z,34.26
2022-08-03T11:51:14.048Z,34.36
2022-08-03T11:52:14.040Z,33.97
2022-08-03T11:53:14.039Z,33.18
2022-08-03T11:54:14.023Z,33.18
2022-08-03T11:55:14.011Z,34.45
2022-08-03T11:56:14.029Z,33.58
2022-08-03T11:57:14.009Z,33.38
2022-08-03T11:58:58.315Z,33.67
2022-08-03T11:59:20.737Z,33.58
2022-08-03T12:00:14.982Z,33.09
2022-08-03T12:01:14.003Z,33.09
2022-08-03T12:02:13.980Z,33.58
2022-08-03T12:03:14.057Z,34.16
2022-08-03T12:04:13.954Z,33.58
2022-08-03T12:05:14.002Z,33.38
2022-08-03T12:06:13.931Z,33.87
2022-08-03T12:07:13.928Z,34.45
2022-08-03T12:08:14.916Z,34.34
2022-08-03T12:09:13.931Z,34.34
2022-08-03T12:10:13.896Z,34.24
2022-08-03T12:11:13.875Z,34.26
2022-08-03T12:12:14.895Z,34.44
2022-08-03T12:14:44.751Z,34.24
2022-08-03T12:14:49.235Z,34.52
2022-08-03T12:15:14.855Z,34.03
2022-08-03T12:16:13.881Z,34.05
2022-08-03T12:17:13.847Z,34.44
2022-08-03T12:18:13.839Z,34.23
2022-08-03T12:19:13.830Z,34.62
2022-08-03T12:20:13.846Z,33.34
2022-08-03T12:21:13.809Z,34.62
2022-08-03T12:22:13.802Z,33.45
2022-08-03T12:23:13.805Z,33.23
2022-08-03T12:24:13.801Z,33.92
2022-08-03T12:25:13.779Z,32.75
2022-08-03T12:26:13.769Z,33.43
2022-08-03T12:27:13.764Z,32.94
2022-08-03T12:28:30.354Z,33.43
2022-08-03T12:29:14.761Z,33.02
2022-08-03T12:30:13.742Z,33.41
2022-08-03T12:31:14.348Z,31.75
2022-08-03T12:32:13.727Z,32.04
2022-08-03T12:33:13.721Z,31.85
2022-08-03T12:34:13.719Z,32.63
2022-08-03T12:35:13.705Z,32.55
2022-08-03T12:36:13.688Z,32.55
2022-08-03T12:37:21.973Z,33.15
2022-08-03T12:38:14.675Z,33.34
2022-08-03T12:39:13.689Z,33.23
2022-08-03T12:40:17.782Z,32.35
2022-08-03T12:41:15.653Z,32.94
2022-08-03T12:42:13.652Z,32.75
2022-08-03T12:43:13.648Z,33.04
2022-08-03T12:44:13.647Z,32.55
2022-08-03T12:45:13.649Z,32.55
2022-08-03T12:46:13.642Z,32.75
2022-08-03T12:47:13.610Z,32.43
2022-08-03T12:48:13.657Z,33.04
2022-08-03T12:49:15.487Z,32.84
2022-08-03T12:50:13.612Z,32.92
2022-08-03T12:51:13.713Z,33.23
2022-08-03T12:52:13.574Z,32.84
2022-08-03T12:53:13.680Z,32.06
2022-08-03T12:54:13.591Z,32.43
2022-08-03T12:55:13.555Z,32.63
2022-08-03T12:56:13.544Z,33.22
2022-08-03T12:57:16.165Z,32.14